sensor_id;sensor_type;location;lat;lon;timestamp;P1;P2;P0
36453;PMS5003;22478;51.740;-1.314;2023-03-01T00:00:04;31;31;
36453;PMS5003;22478;51.740;-1.314;2023-03-01T00:02:33;33;30;
36453;PMS5003;22478;51.740;-1.314;2023-03-01T00:05:01;29;23;
36453;PMS5003;22478;51.740;-1.314;2023-03-01T00:07:27;30;29;
36453;PMS5003;22478;51.740;-1.314;2023-03-01T00:09:55;26;21;
36453;PMS5003;22478;51.740;-1.314;2023-03-01T00:12:22;19;17;
36453;PMS5003;22478;51.740;-1.314;2023-03-01T00:14:49;21;20;
36453;PMS5003;22478;51.740;-1.314;2023-03-01T00:17:16;20;20;
36453;PMS5003;22478;51.740;-1.314;2023-03-01T00:19:43;25;25;
36453;PMS5003;22478;51.740;-1.314;2023-03-01T00:22:11;38;35;
36453;PMS5003;22478;51.740;-1.314;2023-03-01T00:24:37;35;32;
36453;PMS5003;22478;51.740;-1.314;2023-03-01T00:27:04;29;29;
36453;PMS5003;22478;51.740;-1.314;2023-03-01T00:29:31;32;32;
36453;PMS5003;22478;51.740;-1.314;2023-03-01T00:31:59;29;22;
36453;PMS5003;22478;51.740;-1.314;2023-03-01T00:34:26;23;19;
36453;PMS5003;22478;51.740;-1.314;2023-03-01T00:36:53;23;20;
36453;PMS5003;22478;51.740;-1.314;2023-03-01T00:39:20;28;24;
36453;PMS5003;22478;51.740;-1.314;2023-03-01T00:41:48;32;26;
36453;PMS5003;22478;51.740;-1.314;2023-03-01T00:44:15;28;27;
36453;PMS5003;22478;51.740;-1.314;2023-03-01T00:46:42;32;32;
36453;PMS5003;22478;51.740;-1.314;2023-03-01T00:49:09;28;28;
36453;PMS5003;22478;51.740;-1.314;2023-03-01T00:51:36;29;27;
36453;PMS5003;22478;51.740;-1.314;2023-03-01T00:54:03;32;31;
36453;PMS5003;22478;51.740;-1.314;2023-03-01T00:56:30;29;27;
36453;PMS5003;22478;51.740;-1.314;2023-03-01T00:58:58;27;27;
36453;PMS5003;22478;51.740;-1.314;2023-03-01T01:01:27;26;24;
36453;PMS5003;22478;51.740;-1.314;2023-03-01T01:03:56;22;19;
36453;PMS5003;22478;51.740;-1.314;2023-03-01T01:06:25;22;18;
36453;PMS5003;22478;51.740;-1.314;2023-03-01T01:08:55;32;32;
36453;PMS5003;22478;51.740;-1.314;2023-03-01T01:11:24;24;23;
36453;PMS5003;22478;51.740;-1.314;2023-03-01T01:13:54;18;17;
36453;PMS5003;22478;51.740;-1.314;2023-03-01T01:16:22;24;24;
36453;PMS5003;22478;51.740;-1.314;2023-03-01T01:18:51;17;17;
36453;PMS5003;22478;51.740;-1.314;2023-03-01T01:21:20;19;19;
36453;PMS5003;22478;51.740;-1.314;2023-03-01T01:23:49;16;15;
36453;PMS5003;22478;51.740;-1.314;2023-03-01T01:26:18;17;17;
36453;PMS5003;22478;51.740;-1.314;2023-03-01T01:28:47;18;16;
36453;PMS5003;22478;51.740;-1.314;2023-03-01T01:31:14;14;14;
36453;PMS5003;22478;51.740;-1.314;2023-03-01T01:33:42;11;9;
36453;PMS5003;22478;51.740;-1.314;2023-03-01T01:36:09;17;15;
36453;PMS5003;22478;51.740;-1.314;2023-03-01T01:38:37;10;10;
36453;PMS5003;22478;51.740;-1.314;2023-03-01T01:41:06;16;16;
36453;PMS5003;22478;51.740;-1.314;2023-03-01T01:43:35;16;15;
36453;PMS5003;22478;51.740;-1.314;2023-03-01T01:46:04;13;13;
36453;PMS5003;22478;51.740;-1.314;2023-03-01T01:48:37;9;9;
36453;PMS5003;22478;51.740;-1.314;2023-03-01T01:51:10;13;13;
36453;PMS5003;22478;51.740;-1.314;2023-03-01T01:53:40;14;12;
36453;PMS5003;22478;51.740;-1.314;2023-03-01T01:56:11;13;13;
36453;PMS5003;22478;51.740;-1.314;2023-03-01T01:58:42;12;12;
36453;PMS5003;22478;51.740;-1.314;2023-03-01T02:01:11;10;9;
36453;PMS5003;22478;51.740;-1.314;2023-03-01T02:03:38;15;15;
36453;PMS5003;22478;51.740;-1.314;2023-03-01T02:06:12;10;7;
36453;PMS5003;22478;51.740;-1.314;2023-03-01T02:08:44;7;7;
36453;PMS5003;22478;51.740;-1.314;2023-03-01T02:11:13;10;10;
36453;PMS5003;22478;51.740;-1.314;2023-03-01T02:13:41;10;9;
36453;PMS5003;22478;51.740;-1.314;2023-03-01T02:16:10;6;6;
36453;PMS5003;22478;51.740;-1.314;2023-03-01T02:18:39;3;3;
36453;PMS5003;22478;51.740;-1.314;2023-03-01T02:21:12;3;3;
36453;PMS5003;22478;51.740;-1.314;2023-03-01T02:23:48;3;3;
36453;PMS5003;22478;51.740;-1.314;2023-03-01T02:26:18;5;4;
36453;PMS5003;22478;51.740;-1.314;2023-03-01T02:28:47;4;3;
36453;PMS5003;22478;51.740;-1.314;2023-03-01T02:31:16;5;5;
36453;PMS5003;22478;51.740;-1.314;2023-03-01T02:33:46;6;5;
36453;PMS5003;22478;51.740;-1.314;2023-03-01T02:36:15;6;6;
36453;PMS5003;22478;51.740;-1.314;2023-03-01T02:38:46;7;7;
36453;PMS5003;22478;51.740;-1.314;2023-03-01T02:41:15;7;7;
36453;PMS5003;22478;51.740;-1.314;2023-03-01T02:43:45;6;6;
36453;PMS5003;22478;51.740;-1.314;2023-03-01T02:46:14;2;2;
36453;PMS5003;22478;51.740;-1.314;2023-03-01T02:48:44;7;6;
36453;PMS5003;22478;51.740;-1.314;2023-03-01T02:51:17;7;7;
36453;PMS5003;22478;51.740;-1.314;2023-03-01T02:53:55;4;3;
36453;PMS5003;22478;51.740;-1.314;2023-03-01T02:56:31;1;1;
36453;PMS5003;22478;51.740;-1.314;2023-03-01T02:58:58;3;2;
36453;PMS5003;22478;51.740;-1.314;2023-03-01T03:01:26;5;3;
36453;PMS5003;22478;51.740;-1.314;2023-03-01T03:03:54;3;3;
36453;PMS5003;22478;51.740;-1.314;2023-03-01T03:06:21;4;4;
36453;PMS5003;22478;51.740;-1.314;2023-03-01T03:08:48;7;4;
36453;PMS5003;22478;51.740;-1.314;2023-03-01T03:11:15;5;5;
36453;PMS5003;22478;51.740;-1.314;2023-03-01T03:13:42;5;5;
36453;PMS5003;22478;51.740;-1.314;2023-03-01T03:16:10;6;4;
36453;PMS5003;22478;51.740;-1.314;2023-03-01T03:18:37;7;6;
36453;PMS5003;22478;51.740;-1.314;2023-03-01T03:21:07;8;8;
36453;PMS5003;22478;51.740;-1.314;2023-03-01T03:23:35;5;4;
36453;PMS5003;22478;51.740;-1.314;2023-03-01T03:26:02;4;4;
36453;PMS5003;22478;51.740;-1.314;2023-03-01T03:28:30;4;4;
36453;PMS5003;22478;51.740;-1.314;2023-03-01T03:30:57;2;2;
36453;PMS5003;22478;51.740;-1.314;2023-03-01T03:33:25;1;1;
36453;PMS5003;22478;51.740;-1.314;2023-03-01T03:35:52;1;1;
36453;PMS5003;22478;51.740;-1.314;2023-03-01T03:38:20;5;4;
36453;PMS5003;22478;51.740;-1.314;2023-03-01T03:40:48;1;1;
36453;PMS5003;22478;51.740;-1.314;2023-03-01T03:43:18;2;2;
36453;PMS5003;22478;51.740;-1.314;2023-03-01T03:45:47;6;6;
36453;PMS5003;22478;51.740;-1.314;2023-03-01T03:48:16;6;5;
36453;PMS5003;22478;51.740;-1.314;2023-03-01T03:50:47;6;4;
36453;PMS5003;22478;51.740;-1.314;2023-03-01T03:53:16;7;7;
36453;PMS5003;22478;51.740;-1.314;2023-03-01T03:55:44;12;9;
36453;PMS5003;22478;51.740;-1.314;2023-03-01T03:58:11;12;9;
36453;PMS5003;22478;51.740;-1.314;2023-03-01T04:00:39;12;9;
36453;PMS5003;22478;51.740;-1.314;2023-03-01T04:03:07;4;4;
36453;PMS5003;22478;51.740;-1.314;2023-03-01T04:05:36;3;3;
36453;PMS5003;22478;51.740;-1.314;2023-03-01T04:08:05;4;3;
36453;PMS5003;22478;51.740;-1.314;2023-03-01T04:10:33;3;3;
36453;PMS5003;22478;51.740;-1.314;2023-03-01T04:13:02;6;3;
36453;PMS5003;22478;51.740;-1.314;2023-03-01T04:15:30;10;6;
36453;PMS5003;22478;51.740;-1.314;2023-03-01T04:17:58;6;6;
36453;PMS5003;22478;51.740;-1.314;2023-03-01T04:20:26;5;5;
36453;PMS5003;22478;51.740;-1.314;2023-03-01T04:22:57;7;6;
36453;PMS5003;22478;51.740;-1.314;2023-03-01T04:25:25;5;5;
36453;PMS5003;22478;51.740;-1.314;2023-03-01T04:27:52;10;7;
36453;PMS5003;22478;51.740;-1.314;2023-03-01T04:30:20;8;8;
36453;PMS5003;22478;51.740;-1.314;2023-03-01T04:32:47;7;7;
36453;PMS5003;22478;51.740;-1.314;2023-03-01T04:35:14;15;13;
36453;PMS5003;22478;51.740;-1.314;2023-03-01T04:37:42;9;9;
36453;PMS5003;22478;51.740;-1.314;2023-03-01T04:40:09;14;14;
36453;PMS5003;22478;51.740;-1.314;2023-03-01T04:42:37;10;10;
36453;PMS5003;22478;51.740;-1.314;2023-03-01T04:45:05;13;13;
36453;PMS5003;22478;51.740;-1.314;2023-03-01T04:47:32;10;10;
36453;PMS5003;22478;51.740;-1.314;2023-03-01T04:50:00;12;10;
36453;PMS5003;22478;51.740;-1.314;2023-03-01T04:52:27;19;19;
36453;PMS5003;22478;51.740;-1.314;2023-03-01T04:54:54;16;16;
36453;PMS5003;22478;51.740;-1.314;2023-03-01T04:57:21;14;14;
36453;PMS5003;22478;51.740;-1.314;2023-03-01T04:59:48;21;20;
36453;PMS5003;22478;51.740;-1.314;2023-03-01T05:02:16;17;17;
36453;PMS5003;22478;51.740;-1.314;2023-03-01T05:04:43;15;15;
36453;PMS5003;22478;51.740;-1.314;2023-03-01T05:07:11;28;26;
36453;PMS5003;22478;51.740;-1.314;2023-03-01T05:09:38;23;23;
36453;PMS5003;22478;51.740;-1.314;2023-03-01T05:12:06;37;36;
36453;PMS5003;22478;51.740;-1.314;2023-03-01T05:14:33;32;29;
36453;PMS5003;22478;51.740;-1.314;2023-03-01T05:17:00;25;24;
36453;PMS5003;22478;51.740;-1.314;2023-03-01T05:19:27;29;24;
36453;PMS5003;22478;51.740;-1.314;2023-03-01T05:21:54;20;19;
36453;PMS5003;22478;51.740;-1.314;2023-03-01T05:24:21;27;23;
36453;PMS5003;22478;51.740;-1.314;2023-03-01T05:26:49;28;26;
36453;PMS5003;22478;51.740;-1.314;2023-03-01T05:29:17;38;30;
36453;PMS5003;22478;51.740;-1.314;2023-03-01T05:29:18;36;29;
36453;PMS5003;22478;51.740;-1.314;2023-03-01T05:31:46;31;25;
36453;PMS5003;22478;51.740;-1.314;2023-03-01T05:34:13;29;27;
36453;PMS5003;22478;51.740;-1.314;2023-03-01T05:36:40;32;29;
36453;PMS5003;22478;51.740;-1.314;2023-03-01T05:39:07;24;21;
36453;PMS5003;22478;51.740;-1.314;2023-03-01T05:41:34;23;23;
36453;PMS5003;22478;51.740;-1.314;2023-03-01T05:44:01;25;25;
36453;PMS5003;22478;51.740;-1.314;2023-03-01T05:46:29;28;26;
36453;PMS5003;22478;51.740;-1.314;2023-03-01T05:48:56;28;25;
36453;PMS5003;22478;51.740;-1.314;2023-03-01T05:51:23;28;27;
36453;PMS5003;22478;51.740;-1.314;2023-03-01T05:53:51;24;24;
36453;PMS5003;22478;51.740;-1.314;2023-03-01T05:56:18;24;19;
36453;PMS5003;22478;51.740;-1.314;2023-03-01T05:58:45;25;24;
36453;PMS5003;22478;51.740;-1.314;2023-03-01T06:01:14;26;24;
36453;PMS5003;22478;51.740;-1.314;2023-03-01T06:03:41;22;19;
36453;PMS5003;22478;51.740;-1.314;2023-03-01T06:06:09;41;36;
36453;PMS5003;22478;51.740;-1.314;2023-03-01T06:08:36;25;25;
36453;PMS5003;22478;51.740;-1.314;2023-03-01T06:11:04;28;28;
36453;PMS5003;22478;51.740;-1.314;2023-03-01T06:13:31;23;22;
36453;PMS5003;22478;51.740;-1.314;2023-03-01T06:15:58;21;20;
36453;PMS5003;22478;51.740;-1.314;2023-03-01T06:18:25;20;19;
36453;PMS5003;22478;51.740;-1.314;2023-03-01T06:20:53;22;21;
36453;PMS5003;22478;51.740;-1.314;2023-03-01T06:23:20;29;25;
36453;PMS5003;22478;51.740;-1.314;2023-03-01T06:25:47;22;22;
36453;PMS5003;22478;51.740;-1.314;2023-03-01T06:28:15;26;24;
36453;PMS5003;22478;51.740;-1.314;2023-03-01T06:30:43;33;27;
36453;PMS5003;22478;51.740;-1.314;2023-03-01T06:33:11;26;20;
36453;PMS5003;22478;51.740;-1.314;2023-03-01T06:35:39;21;21;
36453;PMS5003;22478;51.740;-1.314;2023-03-01T06:38:06;28;27;
36453;PMS5003;22478;51.740;-1.314;2023-03-01T06:40:33;32;32;
36453;PMS5003;22478;51.740;-1.314;2023-03-01T06:43:00;36;33;
36453;PMS5003;22478;51.740;-1.314;2023-03-01T06:45:28;43;40;
36453;PMS5003;22478;51.740;-1.314;2023-03-01T06:48:04;45;40;
36453;PMS5003;22478;51.740;-1.314;2023-03-01T06:50:33;44;41;
36453;PMS5003;22478;51.740;-1.314;2023-03-01T06:53:01;31;30;
36453;PMS5003;22478;51.740;-1.314;2023-03-01T06:55:28;31;28;
36453;PMS5003;22478;51.740;-1.314;2023-03-01T06:57:57;50;48;
36453;PMS5003;22478;51.740;-1.314;2023-03-01T07:00:26;53;51;
36453;PMS5003;22478;51.740;-1.314;2023-03-01T07:02:54;49;46;
36453;PMS5003;22478;51.740;-1.314;2023-03-01T07:05:24;47;47;
36453;PMS5003;22478;51.740;-1.314;2023-03-01T07:07:52;24;24;
36453;PMS5003;22478;51.740;-1.314;2023-03-01T07:10:20;31;30;
36453;PMS5003;22478;51.740;-1.314;2023-03-01T07:12:47;23;20;
36453;PMS5003;22478;51.740;-1.314;2023-03-01T07:15:14;15;15;
36453;PMS5003;22478;51.740;-1.314;2023-03-01T07:17:41;23;20;
36453;PMS5003;22478;51.740;-1.314;2023-03-01T07:20:09;17;17;
36453;PMS5003;22478;51.740;-1.314;2023-03-01T07:22:39;15;14;
36453;PMS5003;22478;51.740;-1.314;2023-03-01T07:25:07;14;14;
36453;PMS5003;22478;51.740;-1.314;2023-03-01T07:27:36;10;9;
36453;PMS5003;22478;51.740;-1.314;2023-03-01T07:30:04;10;10;
36453;PMS5003;22478;51.740;-1.314;2023-03-01T07:32:31;14;12;
36453;PMS5003;22478;51.740;-1.314;2023-03-01T07:34:59;29;27;
36453;PMS5003;22478;51.740;-1.314;2023-03-01T07:37:26;20;20;
36453;PMS5003;22478;51.740;-1.314;2023-03-01T07:39:54;20;20;
36453;PMS5003;22478;51.740;-1.314;2023-03-01T07:42:21;10;10;
36453;PMS5003;22478;51.740;-1.314;2023-03-01T07:44:49;17;15;
36453;PMS5003;22478;51.740;-1.314;2023-03-01T07:47:16;12;12;
36453;PMS5003;22478;51.740;-1.314;2023-03-01T07:49:43;16;16;
36453;PMS5003;22478;51.740;-1.314;2023-03-01T07:52:11;15;15;
36453;PMS5003;22478;51.740;-1.314;2023-03-01T07:54:39;16;16;
36453;PMS5003;22478;51.740;-1.314;2023-03-01T07:57:09;20;18;
36453;PMS5003;22478;51.740;-1.314;2023-03-01T07:59:37;26;23;
36453;PMS5003;22478;51.740;-1.314;2023-03-01T08:02:05;15;15;
36453;PMS5003;22478;51.740;-1.314;2023-03-01T08:04:32;16;16;
36453;PMS5003;22478;51.740;-1.314;2023-03-01T08:06:59;20;18;
36453;PMS5003;22478;51.740;-1.314;2023-03-01T08:09:26;13;13;
36453;PMS5003;22478;51.740;-1.314;2023-03-01T08:11:55;17;16;
36453;PMS5003;22478;51.740;-1.314;2023-03-01T08:14:22;27;27;
36453;PMS5003;22478;51.740;-1.314;2023-03-01T08:16:50;16;15;
36453;PMS5003;22478;51.740;-1.314;2023-03-01T08:19:17;12;12;
36453;PMS5003;22478;51.740;-1.314;2023-03-01T08:21:45;21;21;
36453;PMS5003;22478;51.740;-1.314;2023-03-01T08:24:12;17;17;
36453;PMS5003;22478;51.740;-1.314;2023-03-01T08:26:39;16;15;
36453;PMS5003;22478;51.740;-1.314;2023-03-01T08:29:07;12;12;
36453;PMS5003;22478;51.740;-1.314;2023-03-01T08:31:35;21;20;
36453;PMS5003;22478;51.740;-1.314;2023-03-01T08:34:04;23;22;
36453;PMS5003;22478;51.740;-1.314;2023-03-01T08:36:35;26;23;
36453;PMS5003;22478;51.740;-1.314;2023-03-01T08:39:03;25;25;
36453;PMS5003;22478;51.740;-1.314;2023-03-01T08:41:31;19;19;
36453;PMS5003;22478;51.740;-1.314;2023-03-01T08:43:58;21;21;
36453;PMS5003;22478;51.740;-1.314;2023-03-01T08:46:26;18;14;
36453;PMS5003;22478;51.740;-1.314;2023-03-01T08:48:54;9;9;
36453;PMS5003;22478;51.740;-1.314;2023-03-01T08:51:23;12;12;
36453;PMS5003;22478;51.740;-1.314;2023-03-01T08:53:51;11;11;
36453;PMS5003;22478;51.740;-1.314;2023-03-01T08:56:18;9;8;
36453;PMS5003;22478;51.740;-1.314;2023-03-01T08:58:46;7;7;
36453;PMS5003;22478;51.740;-1.314;2023-03-01T09:01:15;22;21;
36453;PMS5003;22478;51.740;-1.314;2023-03-01T09:03:43;11;11;
36453;PMS5003;22478;51.740;-1.314;2023-03-01T09:06:10;11;10;
36453;PMS5003;22478;51.740;-1.314;2023-03-01T09:08:38;6;6;
36453;PMS5003;22478;51.740;-1.314;2023-03-01T09:11:07;4;4;
36453;PMS5003;22478;51.740;-1.314;2023-03-01T09:13:36;13;12;
36453;PMS5003;22478;51.740;-1.314;2023-03-01T09:16:05;11;11;
36453;PMS5003;22478;51.740;-1.314;2023-03-01T09:18:34;12;12;
36453;PMS5003;22478;51.740;-1.314;2023-03-01T09:21:03;6;6;
36453;PMS5003;22478;51.740;-1.314;2023-03-01T09:23:31;14;14;
36453;PMS5003;22478;51.740;-1.314;2023-03-01T09:25:58;11;11;
36453;PMS5003;22478;51.740;-1.314;2023-03-01T09:28:25;19;17;
36453;PMS5003;22478;51.740;-1.314;2023-03-01T09:30:53;12;8;
36453;PMS5003;22478;51.740;-1.314;2023-03-01T09:33:23;5;5;
36453;PMS5003;22478;51.740;-1.314;2023-03-01T09:35:55;6;6;
36453;PMS5003;22478;51.740;-1.314;2023-03-01T09:38:23;6;6;
36453;PMS5003;22478;51.740;-1.314;2023-03-01T09:40:50;7;7;
36453;PMS5003;22478;51.740;-1.314;2023-03-01T09:43:19;14;13;
36453;PMS5003;22478;51.740;-1.314;2023-03-01T09:45:50;4;4;
36453;PMS5003;22478;51.740;-1.314;2023-03-01T09:48:23;12;11;
36453;PMS5003;22478;51.740;-1.314;2023-03-01T09:50:52;20;20;
36453;PMS5003;22478;51.740;-1.314;2023-03-01T09:53:20;19;16;
36453;PMS5003;22478;51.740;-1.314;2023-03-01T09:55:51;20;20;
36453;PMS5003;22478;51.740;-1.314;2023-03-01T09:58:31;14;14;
36453;PMS5003;22478;51.740;-1.314;2023-03-01T10:01:06;11;11;
36453;PMS5003;22478;51.740;-1.314;2023-03-01T10:03:48;10;10;
36453;PMS5003;22478;51.740;-1.314;2023-03-01T10:06:30;16;16;
36453;PMS5003;22478;51.740;-1.314;2023-03-01T10:08:58;11;10;
36453;PMS5003;22478;51.740;-1.314;2023-03-01T10:11:32;9;9;
36453;PMS5003;22478;51.740;-1.314;2023-03-01T10:14:04;5;5;
36453;PMS5003;22478;51.740;-1.314;2023-03-01T10:16:43;12;12;
36453;PMS5003;22478;51.740;-1.314;2023-03-01T10:19:20;11;10;
36453;PMS5003;22478;51.740;-1.314;2023-03-01T10:21:50;22;22;
36453;PMS5003;22478;51.740;-1.314;2023-03-01T10:24:18;24;23;
36453;PMS5003;22478;51.740;-1.314;2023-03-01T10:26:47;27;27;
36453;PMS5003;22478;51.740;-1.314;2023-03-01T10:29:20;22;19;
36453;PMS5003;22478;51.740;-1.314;2023-03-01T10:31:52;25;24;
36453;PMS5003;22478;51.740;-1.314;2023-03-01T10:34:21;26;25;
36453;PMS5003;22478;51.740;-1.314;2023-03-01T10:36:55;15;15;
36453;PMS5003;22478;51.740;-1.314;2023-03-01T10:39:27;26;24;
36453;PMS5003;22478;51.740;-1.314;2023-03-01T10:41:56;22;21;
36453;PMS5003;22478;51.740;-1.314;2023-03-01T10:44:58;14;14;
36453;PMS5003;22478;51.740;-1.314;2023-03-01T10:47:42;11;10;
36453;PMS5003;22478;51.740;-1.314;2023-03-01T10:50:18;11;10;
36453;PMS5003;22478;51.740;-1.314;2023-03-01T10:52:55;10;10;
36453;PMS5003;22478;51.740;-1.314;2023-03-01T10:55:26;13;13;
36453;PMS5003;22478;51.740;-1.314;2023-03-01T10:58:31;16;12;
36453;PMS5003;22478;51.740;-1.314;2023-03-01T11:00:59;10;10;
36453;PMS5003;22478;51.740;-1.314;2023-03-01T11:03:28;12;12;
36453;PMS5003;22478;51.740;-1.314;2023-03-01T11:05:58;21;20;
36453;PMS5003;22478;51.740;-1.314;2023-03-01T11:08:29;12;12;
36453;PMS5003;22478;51.740;-1.314;2023-03-01T11:11:06;19;16;
36453;PMS5003;22478;51.740;-1.314;2023-03-01T11:13:54;17;16;
36453;PMS5003;22478;51.740;-1.314;2023-03-01T11:16:25;11;11;
36453;PMS5003;22478;51.740;-1.314;2023-03-01T11:18:56;10;10;
36453;PMS5003;22478;51.740;-1.314;2023-03-01T11:21:26;11;11;
36453;PMS5003;22478;51.740;-1.314;2023-03-01T11:23:58;15;15;
36453;PMS5003;22478;51.740;-1.314;2023-03-01T11:26:28;12;12;
36453;PMS5003;22478;51.740;-1.314;2023-03-01T11:28:58;10;10;
36453;PMS5003;22478;51.740;-1.314;2023-03-01T11:31:31;11;11;
36453;PMS5003;22478;51.740;-1.314;2023-03-01T11:33:59;11;9;
36453;PMS5003;22478;51.740;-1.314;2023-03-01T11:36:38;15;15;
36453;PMS5003;22478;51.740;-1.314;2023-03-01T11:39:15;14;13;
36453;PMS5003;22478;51.740;-1.314;2023-03-01T11:41:52;16;16;
36453;PMS5003;22478;51.740;-1.314;2023-03-01T11:44:29;21;21;
36453;PMS5003;22478;51.740;-1.314;2023-03-01T11:47:07;25;24;
36453;PMS5003;22478;51.740;-1.314;2023-03-01T11:49:51;12;12;
36453;PMS5003;22478;51.740;-1.314;2023-03-01T11:52:30;10;10;
36453;PMS5003;22478;51.740;-1.314;2023-03-01T11:55:12;12;12;
36453;PMS5003;22478;51.740;-1.314;2023-03-01T11:57:58;11;10;
36453;PMS5003;22478;51.740;-1.314;2023-03-01T12:00:43;10;9;
36453;PMS5003;22478;51.740;-1.314;2023-03-01T12:03:25;14;14;
36453;PMS5003;22478;51.740;-1.314;2023-03-01T12:06:02;9;8;
36453;PMS5003;22478;51.740;-1.314;2023-03-01T12:08:40;5;5;
36453;PMS5003;22478;51.740;-1.314;2023-03-01T12:11:16;9;9;
36453;PMS5003;22478;51.740;-1.314;2023-03-01T12:13:54;9;9;
36453;PMS5003;22478;51.740;-1.314;2023-03-01T12:16:36;12;12;
36453;PMS5003;22478;51.740;-1.314;2023-03-01T12:19:23;14;13;
36453;PMS5003;22478;51.740;-1.314;2023-03-01T12:22:16;13;11;
36453;PMS5003;22478;51.740;-1.314;2023-03-01T12:24:58;10;10;
36453;PMS5003;22478;51.740;-1.314;2023-03-01T12:27:45;9;8;
36453;PMS5003;22478;51.740;-1.314;2023-03-01T12:30:27;13;13;
36453;PMS5003;22478;51.740;-1.314;2023-03-01T12:33:13;11;10;
36453;PMS5003;22478;51.740;-1.314;2023-03-01T12:35:52;6;6;
36453;PMS5003;22478;51.740;-1.314;2023-03-01T12:38:33;10;10;
36453;PMS5003;22478;51.740;-1.314;2023-03-01T12:41:11;10;10;
36453;PMS5003;22478;51.740;-1.314;2023-03-01T12:43:58;31;31;
36453;PMS5003;22478;51.740;-1.314;2023-03-01T12:46:35;11;9;
36453;PMS5003;22478;51.740;-1.314;2023-03-01T12:49:14;9;9;
36453;PMS5003;22478;51.740;-1.314;2023-03-01T12:51:49;14;14;
36453;PMS5003;22478;51.740;-1.314;2023-03-01T12:54:22;10;10;
36453;PMS5003;22478;51.740;-1.314;2023-03-01T12:56:54;9;9;
36453;PMS5003;22478;51.740;-1.314;2023-03-01T12:59:25;11;11;
36453;PMS5003;22478;51.740;-1.314;2023-03-01T13:02:01;9;8;
36453;PMS5003;22478;51.740;-1.314;2023-03-01T13:04:40;12;12;
36453;PMS5003;22478;51.740;-1.314;2023-03-01T13:07:23;9;9;
36453;PMS5003;22478;51.740;-1.314;2023-03-01T13:09:58;5;5;
36453;PMS5003;22478;51.740;-1.314;2023-03-01T13:12:45;7;7;
36453;PMS5003;22478;51.740;-1.314;2023-03-01T13:15:27;7;7;
36453;PMS5003;22478;51.740;-1.314;2023-03-01T13:17:58;17;16;
36453;PMS5003;22478;51.740;-1.314;2023-03-01T13:20:29;19;19;
36453;PMS5003;22478;51.740;-1.314;2023-03-01T13:23:02;11;11;
36453;PMS5003;22478;51.740;-1.314;2023-03-01T13:25:32;11;9;
36453;PMS5003;22478;51.740;-1.314;2023-03-01T13:29:11;11;8;
36453;PMS5003;22478;51.740;-1.314;2023-03-01T13:31:55;5;5;
36453;PMS5003;22478;51.740;-1.314;2023-03-01T13:34:41;11;10;
36453;PMS5003;22478;51.740;-1.314;2023-03-01T13:37:10;6;6;
36453;PMS5003;22478;51.740;-1.314;2023-03-01T13:39:44;9;8;
36453;PMS5003;22478;51.740;-1.314;2023-03-01T13:42:44;12;12;
36453;PMS5003;22478;51.740;-1.314;2023-03-01T13:45:16;10;10;
36453;PMS5003;22478;51.740;-1.314;2023-03-01T13:48:01;11;9;
36453;PMS5003;22478;51.740;-1.314;2023-03-01T13:50:36;6;6;
36453;PMS5003;22478;51.740;-1.314;2023-03-01T13:53:13;5;5;
36453;PMS5003;22478;51.740;-1.314;2023-03-01T13:55:44;5;5;
36453;PMS5003;22478;51.740;-1.314;2023-03-01T13:58:16;8;6;
36453;PMS5003;22478;51.740;-1.314;2023-03-01T14:00:47;5;5;
36453;PMS5003;22478;51.740;-1.314;2023-03-01T14:03:21;7;5;
36453;PMS5003;22478;51.740;-1.314;2023-03-01T14:05:57;9;9;
36453;PMS5003;22478;51.740;-1.314;2023-03-01T14:08:28;7;7;
36453;PMS5003;22478;51.740;-1.314;2023-03-01T14:11:02;7;5;
36453;PMS5003;22478;51.740;-1.314;2023-03-01T14:13:48;6;6;
36453;PMS5003;22478;51.740;-1.314;2023-03-01T14:16:31;6;6;
36453;PMS5003;22478;51.740;-1.314;2023-03-01T14:19:09;9;9;
36453;PMS5003;22478;51.740;-1.314;2023-03-01T14:21:42;10;10;
36453;PMS5003;22478;51.740;-1.314;2023-03-01T14:24:18;6;6;
36453;PMS5003;22478;51.740;-1.314;2023-03-01T14:26:48;9;9;
36453;PMS5003;22478;51.740;-1.314;2023-03-01T14:29:25;12;11;
36453;PMS5003;22478;51.740;-1.314;2023-03-01T14:31:53;9;9;
36453;PMS5003;22478;51.740;-1.314;2023-03-01T14:34:21;12;12;
36453;PMS5003;22478;51.740;-1.314;2023-03-01T14:36:50;7;7;
36453;PMS5003;22478;51.740;-1.314;2023-03-01T14:39:18;12;12;
36453;PMS5003;22478;51.740;-1.314;2023-03-01T14:41:50;9;9;
36453;PMS5003;22478;51.740;-1.314;2023-03-01T14:44:19;17;17;
36453;PMS5003;22478;51.740;-1.314;2023-03-01T14:46:51;10;10;
36453;PMS5003;22478;51.740;-1.314;2023-03-01T14:49:21;18;18;
36453;PMS5003;22478;51.740;-1.314;2023-03-01T14:51:53;15;15;
36453;PMS5003;22478;51.740;-1.314;2023-03-01T14:54:24;8;8;
36453;PMS5003;22478;51.740;-1.314;2023-03-01T14:56:57;4;4;
36453;PMS5003;22478;51.740;-1.314;2023-03-01T14:59:26;4;4;
36453;PMS5003;22478;51.740;-1.314;2023-03-01T15:01:55;7;7;
36453;PMS5003;22478;51.740;-1.314;2023-03-01T15:04:24;7;7;
36453;PMS5003;22478;51.740;-1.314;2023-03-01T15:06:53;9;9;
36453;PMS5003;22478;51.740;-1.314;2023-03-01T15:09:22;5;5;
36453;PMS5003;22478;51.740;-1.314;2023-03-01T15:11:50;5;5;
36453;PMS5003;22478;51.740;-1.314;2023-03-01T15:14:26;8;8;
36453;PMS5003;22478;51.740;-1.314;2023-03-01T15:17:04;5;5;
36453;PMS5003;22478;51.740;-1.314;2023-03-01T15:19:41;6;5;
36453;PMS5003;22478;51.740;-1.314;2023-03-01T15:22:12;4;4;
36453;PMS5003;22478;51.740;-1.314;2023-03-01T15:24:45;5;4;
36453;PMS5003;22478;51.740;-1.314;2023-03-01T15:27:14;5;5;
36453;PMS5003;22478;51.740;-1.314;2023-03-01T15:29:48;5;5;
36453;PMS5003;22478;51.740;-1.314;2023-03-01T15:32:26;5;5;
36453;PMS5003;22478;51.740;-1.314;2023-03-01T15:34:55;9;8;
36453;PMS5003;22478;51.740;-1.314;2023-03-01T15:37:40;11;11;
36453;PMS5003;22478;51.740;-1.314;2023-03-01T15:40:19;13;13;
36453;PMS5003;22478;51.740;-1.314;2023-03-01T15:42:48;13;13;
36453;PMS5003;22478;51.740;-1.314;2023-03-01T15:45:22;11;11;
36453;PMS5003;22478;51.740;-1.314;2023-03-01T15:47:51;11;10;
36453;PMS5003;22478;51.740;-1.314;2023-03-01T15:50:20;9;8;
36453;PMS5003;22478;51.740;-1.314;2023-03-01T15:52:51;7;6;
36453;PMS5003;22478;51.740;-1.314;2023-03-01T15:55:19;4;3;
36453;PMS5003;22478;51.740;-1.314;2023-03-01T15:57:48;5;5;
36453;PMS5003;22478;51.740;-1.314;2023-03-01T16:00:16;3;3;
36453;PMS5003;22478;51.740;-1.314;2023-03-01T16:02:44;5;5;
36453;PMS5003;22478;51.740;-1.314;2023-03-01T16:05:15;6;6;
36453;PMS5003;22478;51.740;-1.314;2023-03-01T16:07:46;7;7;
36453;PMS5003;22478;51.740;-1.314;2023-03-01T16:10:13;11;11;
36453;PMS5003;22478;51.740;-1.314;2023-03-01T16:12:40;8;8;
36453;PMS5003;22478;51.740;-1.314;2023-03-01T16:15:11;6;6;
36453;PMS5003;22478;51.740;-1.314;2023-03-01T16:17:42;9;9;
36453;PMS5003;22478;51.740;-1.314;2023-03-01T16:20:10;10;10;
36453;PMS5003;22478;51.740;-1.314;2023-03-01T16:22:38;9;8;
36453;PMS5003;22478;51.740;-1.314;2023-03-01T16:25:07;9;9;
36453;PMS5003;22478;51.740;-1.314;2023-03-01T16:27:36;10;10;
36453;PMS5003;22478;51.740;-1.314;2023-03-01T16:30:03;8;7;
36453;PMS5003;22478;51.740;-1.314;2023-03-01T16:32:32;8;8;
36453;PMS5003;22478;51.740;-1.314;2023-03-01T16:34:59;10;9;